sensor_id;sensor_type;location;lat;lon;timestamp;pressure;altitude;pressure_sealevel;temperature;humidity
15678;BME280;7939;50.814;6.368;2024-03-07T00:02:23;100714.09;;;11.43;57.42
15678;BME280;7939;50.814;6.368;2024-03-07T00:04:50;100716.72;;;11.46;57.40
15678;BME280;7939;50.814;6.368;2024-03-07T00:07:17;100725.19;;;11.42;57.63
15678;BME280;7939;50.814;6.368;2024-03-07T00:09:43;100719.22;;;11.43;57.24
15678;BME280;7939;50.814;6.368;2024-03-07T00:12:11;100714.06;;;11.40;58.05
15678;BME280;7939;50.814;6.368;2024-03-07T00:14:38;100712.38;;;11.39;56.70
15678;BME280;7939;50.814;6.368;2024-03-07T00:17:06;100712.44;;;11.45;57.88
15678;BME280;7939;50.814;6.368;2024-03-07T00:19:33;100716.66;;;11.42;57.43
15678;BME280;7939;50.814;6.368;2024-03-07T00:22:00;100713.16;;;11.37;56.99
15678;BME280;7939;50.814;6.368;2024-03-07T00:24:26;100715.72;;;11.35;57.20
15678;BME280;7939;50.814;6.368;2024-03-07T00:26:53;100722.53;;;11.31;57.09
15678;BME280;7939;50.814;6.368;2024-03-07T00:29:20;100718.25;;;11.32;57.58
15678;BME280;7939;50.814;6.368;2024-03-07T00:31:47;100714.81;;;11.30;57.77
15678;BME280;7939;50.814;6.368;2024-03-07T00:34:15;100726.66;;;11.25;56.81
15678;BME280;7939;50.814;6.368;2024-03-07T00:36:44;100722.53;;;11.31;58.20
15678;BME280;7939;50.814;6.368;2024-03-07T00:39:11;100718.19;;;11.29;57.75
15678;BME280;7939;50.814;6.368;2024-03-07T00:41:38;100714.78;;;11.25;57.61
15678;BME280;7939;50.814;6.368;2024-03-07T00:44:05;100723.28;;;11.26;57.27
15678;BME280;7939;50.814;6.368;2024-03-07T00:46:31;100716.44;;;11.23;57.74
15678;BME280;7939;50.814;6.368;2024-03-07T00:48:58;100708.75;;;11.22;57.66
15678;BME280;7939;50.814;6.368;2024-03-07T00:51:27;100708.69;;;11.19;57.57
15678;BME280;7939;50.814;6.368;2024-03-07T00:53:53;100698.50;;;11.20;57.64
15678;BME280;7939;50.814;6.368;2024-03-07T00:56:20;100698.50;;;11.20;57.58
15678;BME280;7939;50.814;6.368;2024-03-07T00:58:47;100693.34;;;11.19;57.06
15678;BME280;7939;50.814;6.368;2024-03-07T01:01:14;100696.75;;;11.18;58.01
15678;BME280;7939;50.814;6.368;2024-03-07T01:03:41;100692.47;;;11.15;57.73
15678;BME280;7939;50.814;6.368;2024-03-07T01:06:08;100697.59;;;11.18;57.67
15678;BME280;7939;50.814;6.368;2024-03-07T01:08:37;100695.09;;;11.20;57.80
15678;BME280;7939;50.814;6.368;2024-03-07T01:11:04;100695.88;;;11.17;57.59
15678;BME280;7939;50.814;6.368;2024-03-07T01:13:35;100693.31;;;11.16;58.11
15678;BME280;7939;50.814;6.368;2024-03-07T01:16:02;100694.09;;;11.10;57.50
15678;BME280;7939;50.814;6.368;2024-03-07T01:18:28;100697.56;;;11.14;57.92
15678;BME280;7939;50.814;6.368;2024-03-07T01:20:55;100686.41;;;11.08;57.14
15678;BME280;7939;50.814;6.368;2024-03-07T01:23:22;100677.03;;;11.07;57.17
15678;BME280;7939;50.814;6.368;2024-03-07T01:25:50;100683.78;;;11.04;57.50
15678;BME280;7939;50.814;6.368;2024-03-07T01:28:17;100689.75;;;11.03;57.76
15678;BME280;7939;50.814;6.368;2024-03-07T01:30:43;100686.31;;;11.02;57.26
15678;BME280;7939;50.814;6.368;2024-03-07T01:33:10;100685.47;;;11.00;57.12
15678;BME280;7939;50.814;6.368;2024-03-07T01:35:37;100684.63;;;11.01;57.48
15678;BME280;7939;50.814;6.368;2024-03-07T01:38:03;100687.13;;;11.00;57.50
15678;BME280;7939;50.814;6.368;2024-03-07T01:40:30;100680.34;;;11.02;57.83
15678;BME280;7939;50.814;6.368;2024-03-07T01:42:58;100679.41;;;10.95;57.21
15678;BME280;7939;50.814;6.368;2024-03-07T01:45:25;100674.34;;;10.98;57.48
15678;BME280;7939;50.814;6.368;2024-03-07T01:47:52;100680.28;;;10.97;57.56
15678;BME280;7939;50.814;6.368;2024-03-07T01:50:18;100670.03;;;10.94;57.36
15678;BME280;7939;50.814;6.368;2024-03-07T01:52:46;100664.03;;;10.92;56.99
15678;BME280;7939;50.814;6.368;2024-03-07T01:55:12;100667.50;;;10.96;57.83
15678;BME280;7939;50.814;6.368;2024-03-07T01:57:39;100659.75;;;10.90;57.08
15678;BME280;7939;50.814;6.368;2024-03-07T02:00:09;100657.19;;;10.91;56.89
15678;BME280;7939;50.814;6.368;2024-03-07T02:02:36;100654.56;;;10.85;57.21
15678;BME280;7939;50.814;6.368;2024-03-07T02:05:03;100651.16;;;10.86;57.16
15678;BME280;7939;50.814;6.368;2024-03-07T02:07:31;100657.19;;;10.90;57.20
15678;BME280;7939;50.814;6.368;2024-03-07T02:09:59;100654.53;;;10.82;57.05
15678;BME280;7939;50.814;6.368;2024-03-07T02:12:26;100645.19;;;10.86;56.97
15678;BME280;7939;50.814;6.368;2024-03-07T02:14:55;100643.44;;;10.82;57.07
15678;BME280;7939;50.814;6.368;2024-03-07T02:17:24;100639.19;;;10.82;57.00
15678;BME280;7939;50.814;6.368;2024-03-07T02:19:51;100640.00;;;10.81;57.01
15678;BME280;7939;50.814;6.368;2024-03-07T02:22:19;100641.69;;;10.77;56.96
15678;BME280;7939;50.814;6.368;2024-03-07T02:24:46;100646.00;;;10.82;57.14
15678;BME280;7939;50.814;6.368;2024-03-07T02:27:13;100640.00;;;10.81;57.36
15678;BME280;7939;50.814;6.368;2024-03-07T02:29:40;100642.53;;;10.78;57.03
15678;BME280;7939;50.814;6.368;2024-03-07T02:32:07;100637.44;;;10.79;56.78
15678;BME280;7939;50.814;6.368;2024-03-07T02:34:35;100642.53;;;10.78;56.80
15678;BME280;7939;50.814;6.368;2024-03-07T02:37:02;100640.84;;;10.78;56.93
15678;BME280;7939;50.814;6.368;2024-03-07T02:39:30;100637.44;;;10.78;56.97
15678;BME280;7939;50.814;6.368;2024-03-07T02:41:57;100639.97;;;10.75;57.10
15678;BME280;7939;50.814;6.368;2024-03-07T02:44:23;100639.06;;;10.74;57.14
15678;BME280;7939;50.814;6.368;2024-03-07T02:46:50;100636.50;;;10.73;57.14
15678;BME280;7939;50.814;6.368;2024-03-07T02:49:17;100635.63;;;10.69;56.77
15678;BME280;7939;50.814;6.368;2024-03-07T02:51:43;100635.56;;;10.68;56.96
15678;BME280;7939;50.814;6.368;2024-03-07T02:54:10;100632.22;;;10.69;57.35
15678;BME280;7939;50.814;6.368;2024-03-07T02:56:39;100631.31;;;10.67;57.55
15678;BME280;7939;50.814;6.368;2024-03-07T02:59:06;100633.84;;;10.64;56.84
15678;BME280;7939;50.814;6.368;2024-03-07T03:01:32;100627.03;;;10.66;56.89
15678;BME280;7939;50.814;6.368;2024-03-07T03:03:59;100622.78;;;10.65;57.05
15678;BME280;7939;50.814;6.368;2024-03-07T03:06:26;100614.25;;;10.63;57.00
15678;BME280;7939;50.814;6.368;2024-03-07T03:08:53;100626.97;;;10.61;57.25
15678;BME280;7939;50.814;6.368;2024-03-07T03:11:20;100614.16;;;10.57;57.54
15678;BME280;7939;50.814;6.368;2024-03-07T03:13:48;100613.31;;;10.58;57.41
15678;BME280;7939;50.814;6.368;2024-03-07T03:16:15;100613.25;;;10.54;57.07
15678;BME280;7939;50.814;6.368;2024-03-07T03:18:42;100614.16;;;10.57;57.03
15678;BME280;7939;50.814;6.368;2024-03-07T03:21:08;100616.63;;;10.52;57.20
15678;BME280;7939;50.814;6.368;2024-03-07T03:23:35;100605.59;;;10.54;57.29
15678;BME280;7939;50.814;6.368;2024-03-07T03:26:02;100607.31;;;10.56;57.06
15678;BME280;7939;50.814;6.368;2024-03-07T03:28:29;100600.47;;;10.53;57.05
15678;BME280;7939;50.814;6.368;2024-03-07T03:30:57;100606.41;;;10.50;57.29
15678;BME280;7939;50.814;6.368;2024-03-07T03:33:24;100603.00;;;10.51;57.50
15678;BME280;7939;50.814;6.368;2024-03-07T03:35:50;100601.25;;;10.49;57.03
15678;BME280;7939;50.814;6.368;2024-03-07T03:38:17;100601.28;;;10.50;57.08
15678;BME280;7939;50.814;6.368;2024-03-07T03:40:45;100596.13;;;10.49;57.40
15678;BME280;7939;50.814;6.368;2024-03-07T03:43:12;100603.78;;;10.47;57.38
15678;BME280;7939;50.814;6.368;2024-03-07T03:45:38;100606.31;;;10.44;57.27
15678;BME280;7939;50.814;6.368;2024-03-07T03:48:07;100600.38;;;10.45;57.34
15678;BME280;7939;50.814;6.368;2024-03-07T03:50:33;100602.91;;;10.44;57.55
15678;BME280;7939;50.814;6.368;2024-03-07T03:53:00;100595.19;;;10.42;57.23
15678;BME280;7939;50.814;6.368;2024-03-07T03:55:29;100597.75;;;10.41;57.21
15678;BME280;7939;50.814;6.368;2024-03-07T03:57:57;100596.88;;;10.40;57.24
15678;BME280;7939;50.814;6.368;2024-03-07T04:00:24;100600.28;;;10.39;56.90
15678;BME280;7939;50.814;6.368;2024-03-07T04:02:51;100602.84;;;10.41;56.79
15678;BME280;7939;50.814;6.368;2024-03-07T04:05:20;100602.84;;;10.39;57.27
15678;BME280;7939;50.814;6.368;2024-03-07T04:07:47;100606.16;;;10.34;57.26
15678;BME280;7939;50.814;6.368;2024-03-07T04:10:15;100596.81;;;10.36;57.54
15678;BME280;7939;50.814;6.368;2024-03-07T04:12:43;100594.25;;;10.36;57.16
15678;BME280;7939;50.814;6.368;2024-03-07T04:15:11;100602.72;;;10.32;57.01
15678;BME280;7939;50.814;6.368;2024-03-07T04:17:39;100590.75;;;10.29;56.98
15678;BME280;7939;50.814;6.368;2024-03-07T04:20:07;100592.50;;;10.32;57.42
15678;BME280;7939;50.814;6.368;2024-03-07T04:22:37;100587.38;;;10.30;57.21
15678;BME280;7939;50.814;6.368;2024-03-07T04:25:06;100587.38;;;10.30;57.39
15678;BME280;7939;50.814;6.368;2024-03-07T04:27:33;100585.66;;;10.31;57.09
15678;BME280;7939;50.814;6.368;2024-03-07T04:30:02;100583.09;;;10.29;57.25
15678;BME280;7939;50.814;6.368;2024-03-07T04:32:30;100588.19;;;10.26;56.86
15678;BME280;7939;50.814;6.368;2024-03-07T04:34:57;100580.50;;;10.26;57.29
15678;BME280;7939;50.814;6.368;2024-03-07T04:37:23;100583.06;;;10.26;56.96
15678;BME280;7939;50.814;6.368;2024-03-07T04:39:51;100585.63;;;10.26;56.87
15678;BME280;7939;50.814;6.368;2024-03-07T04:42:18;100582.94;;;10.20;57.18
15678;BME280;7939;50.814;6.368;2024-03-07T04:44:45;100588.06;;;10.21;57.12
15678;BME280;7939;50.814;6.368;2024-03-07T04:47:12;100583.81;;;10.20;57.48
15678;BME280;7939;50.814;6.368;2024-03-07T04:49:38;100579.53;;;10.19;57.17
15678;BME280;7939;50.814;6.368;2024-03-07T04:52:06;100585.50;;;10.20;56.80
15678;BME280;7939;50.814;6.368;2024-03-07T04:54:32;100583.81;;;10.20;57.28
15678;BME280;7939;50.814;6.368;2024-03-07T04:57:01;100578.69;;;10.19;57.56
15678;BME280;7939;50.814;6.368;2024-03-07T04:59:27;100582.03;;;10.16;57.53
15678;BME280;7939;50.814;6.368;2024-03-07T05:01:54;100580.34;;;10.17;57.24
15678;BME280;7939;50.814;6.368;2024-03-07T05:04:21;100581.16;;;10.14;57.24
15678;BME280;7939;50.814;6.368;2024-03-07T05:06:54;100590.53;;;10.15;57.15
15678;BME280;7939;50.814;6.368;2024-03-07T05:09:23;100581.94;;;10.12;57.30
15678;BME280;7939;50.814;6.368;2024-03-07T05:11:51;100581.16;;;10.14;57.57
15678;BME280;7939;50.814;6.368;2024-03-07T05:14:20;100582.03;;;10.16;57.68
15678;BME280;7939;50.814;6.368;2024-03-07T05:16:47;100580.28;;;10.12;57.36
15678;BME280;7939;50.814;6.368;2024-03-07T05:19:27;100580.28;;;10.12;57.36
15678;BME280;7939;50.814;6.368;2024-03-07T05:21:55;100572.56;;;10.11;57.19
15678;BME280;7939;50.814;6.368;2024-03-07T05:24:22;100577.66;;;10.09;57.28
15678;BME280;7939;50.814;6.368;2024-03-07T05:26:48;100580.22;;;10.08;57.59
15678;BME280;7939;50.814;6.368;2024-03-07T05:29:16;100577.66;;;10.08;57.61
15678;BME280;7939;50.814;6.368;2024-03-07T05:31:44;100579.38;;;10.09;57.49
15678;BME280;7939;50.814;6.368;2024-03-07T05:34:12;100581.06;;;10.07;57.68
15678;BME280;7939;50.814;6.368;2024-03-07T05:36:40;100580.22;;;10.08;57.61
15678;BME280;7939;50.814;6.368;2024-03-07T05:39:09;100577.66;;;10.06;57.71
15678;BME280;7939;50.814;6.368;2024-03-07T05:41:36;100578.44;;;10.05;57.33
15678;BME280;7939;50.814;6.368;2024-03-07T05:44:03;100585.25;;;10.05;57.63
15678;BME280;7939;50.814;6.368;2024-03-07T05:46:34;100578.44;;;10.05;57.46
15678;BME280;7939;50.814;6.368;2024-03-07T05:49:02;100581.84;;;10.04;57.67
15678;BME280;7939;50.814;6.368;2024-03-07T05:51:29;100581.00;;;10.04;57.73
15678;BME280;7939;50.814;6.368;2024-03-07T05:53:56;100580.13;;;10.02;57.46
15678;BME280;7939;50.814;6.368;2024-03-07T05:56:22;100579.16;;;9.95;57.87
15678;BME280;7939;50.814;6.368;2024-03-07T05:58:49;100580.91;;;9.97;57.47
15678;BME280;7939;50.814;6.368;2024-03-07T06:01:16;100578.34;;;9.97;57.62
15678;BME280;7939;50.814;6.368;2024-03-07T06:03:43;100583.44;;;9.97;57.68
15678;BME280;7939;50.814;6.368;2024-03-07T06:06:11;100592.00;;;9.99;57.50
15678;BME280;7939;50.814;6.368;2024-03-07T06:08:38;100585.16;;;9.97;57.74
15678;BME280;7939;50.814;6.368;2024-03-07T06:11:08;100577.47;;;9.95;57.91
15678;BME280;7939;50.814;6.368;2024-03-07T06:13:35;100575.78;;;9.96;57.52
15678;BME280;7939;50.814;6.368;2024-03-07T06:16:02;100579.97;;;9.92;57.82
15678;BME280;7939;50.814;6.368;2024-03-07T06:18:33;100572.38;;;9.95;57.73
15678;BME280;7939;50.814;6.368;2024-03-07T06:21:00;100573.25;;;9.97;57.81
15678;BME280;7939;50.814;6.368;2024-03-07T06:23:31;100576.63;;;9.95;57.98
15678;BME280;7939;50.814;6.368;2024-03-07T06:25:58;100570.59;;;9.93;58.05
15678;BME280;7939;50.814;6.368;2024-03-07T06:28:26;100576.59;;;9.93;57.78
15678;BME280;7939;50.814;6.368;2024-03-07T06:30:54;100574.06;;;9.95;57.81
15678;BME280;7939;50.814;6.368;2024-03-07T06:33:21;100579.16;;;9.93;57.92
15678;BME280;7939;50.814;6.368;2024-03-07T06:35:48;100588.53;;;9.96;57.82
15678;BME280;7939;50.814;6.368;2024-03-07T06:38:17;100583.41;;;9.94;58.13
15678;BME280;7939;50.814;6.368;2024-03-07T06:40:45;100571.50;;;9.95;58.07
15678;BME280;7939;50.814;6.368;2024-03-07T06:43:11;100585.13;;;9.95;58.24
15678;BME280;7939;50.814;6.368;2024-03-07T06:45:39;100574.91;;;9.95;57.81
15678;BME280;7939;50.814;6.368;2024-03-07T06:48:07;100582.59;;;9.98;58.30
15678;BME280;7939;50.814;6.368;2024-03-07T06:50:42;100579.97;;;9.92;57.50
15678;BME280;7939;50.814;6.368;2024-03-07T06:53:10;100585.03;;;9.88;57.49
15678;BME280;7939;50.814;6.368;2024-03-07T06:55:36;100580.78;;;9.90;57.85
15678;BME280;7939;50.814;6.368;2024-03-07T06:58:03;100586.66;;;9.86;57.96
15678;BME280;7939;50.814;6.368;2024-03-07T07:00:30;100583.31;;;9.87;57.69
15678;BME280;7939;50.814;6.368;2024-03-07T07:03:01;100584.16;;;9.87;57.94
15678;BME280;7939;50.814;6.368;2024-03-07T07:05:30;100575.69;;;9.91;57.77
15678;BME280;7939;50.814;6.368;2024-03-07T07:07:58;100574.84;;;9.91;58.03
15678;BME280;7939;50.814;6.368;2024-03-07T07:10:25;100576.59;;;9.93;57.99
15678;BME280;7939;50.814;6.368;2024-03-07T07:12:52;100572.38;;;9.95;58.05
15678;BME280;7939;50.814;6.368;2024-03-07T07:15:20;100568.97;;;9.95;58.02
15678;BME280;7939;50.814;6.368;2024-03-07T07:17:47;100571.53;;;9.96;57.72
15678;BME280;7939;50.814;6.368;2024-03-07T07:20:15;100568.13;;;9.96;57.84
15678;BME280;7939;50.814;6.368;2024-03-07T07:22:45;100560.47;;;9.96;57.83
15678;BME280;7939;50.814;6.368;2024-03-07T07:25:14;100562.09;;;9.92;57.71
15678;BME280;7939;50.814;6.368;2024-03-07T07:27:43;100563.00;;;9.94;57.84
15678;BME280;7939;50.814;6.368;2024-03-07T07:30:10;100563.84;;;9.95;57.95
15678;BME280;7939;50.814;6.368;2024-03-07T07:32:38;100558.75;;;9.95;58.06
15678;BME280;7939;50.814;6.368;2024-03-07T07:35:05;100555.38;;;9.97;57.91
15678;BME280;7939;50.814;6.368;2024-03-07T07:37:35;100562.22;;;10.00;57.87
15678;BME280;7939;50.814;6.368;2024-03-07T07:40:02;100557.91;;;9.97;57.99
15678;BME280;7939;50.814;6.368;2024-03-07T07:42:30;100550.19;;;9.93;57.75
15678;BME280;7939;50.814;6.368;2024-03-07T07:44:57;100557.03;;;9.95;57.84
15678;BME280;7939;50.814;6.368;2024-03-07T07:47:24;100553.66;;;9.96;57.77
15678;BME280;7939;50.814;6.368;2024-03-07T07:49:50;100556.22;;;9.98;57.99
15678;BME280;7939;50.814;6.368;2024-03-07T07:52:17;100560.47;;;9.97;57.91
15678;BME280;7939;50.814;6.368;2024-03-07T07:54:44;100559.59;;;9.94;57.71
15678;BME280;7939;50.814;6.368;2024-03-07T07:57:11;100560.28;;;9.85;57.74
15678;BME280;7939;50.814;6.368;2024-03-07T07:59:39;100556.09;;;9.87;58.04
15678;BME280;7939;50.814;6.368;2024-03-07T08:02:06;100557.78;;;9.87;57.80
15678;BME280;7939;50.814;6.368;2024-03-07T08:04:32;100553.56;;;9.92;58.11
15678;BME280;7939;50.814;6.368;2024-03-07T08:06:59;100552.72;;;9.93;57.99
15678;BME280;7939;50.814;6.368;2024-03-07T08:09:26;100554.50;;;9.95;58.43
15678;BME280;7939;50.814;6.368;2024-03-07T08:11:53;100554.50;;;9.97;58.30
15678;BME280;7939;50.814;6.368;2024-03-07T08:14:19;100554.56;;;10.00;58.36
15678;BME280;7939;50.814;6.368;2024-03-07T08:16:49;100558.00;;;10.02;58.22
15678;BME280;7939;50.814;6.368;2024-03-07T08:19:17;100558.81;;;9.99;58.21
15678;BME280;7939;50.814;6.368;2024-03-07T08:21:43;100552.78;;;9.96;58.03
15678;BME280;7939;50.814;6.368;2024-03-07T08:24:10;100557.13;;;10.02;58.48
15678;BME280;7939;50.814;6.368;2024-03-07T08:26:37;100552.03;;;10.03;58.38
15678;BME280;7939;50.814;6.368;2024-03-07T08:29:03;100552.88;;;10.02;58.46
15678;BME280;7939;50.814;6.368;2024-03-07T08:31:31;100544.34;;;10.00;58.02
15678;BME280;7939;50.814;6.368;2024-03-07T08:33:59;100551.19;;;10.01;58.09
15678;BME280;7939;50.814;6.368;2024-03-07T08:36:25;100551.09;;;9.96;58.15
15678;BME280;7939;50.814;6.368;2024-03-07T08:38:52;100548.66;;;10.04;58.60
15678;BME280;7939;50.814;6.368;2024-03-07T08:41:19;100546.16;;;10.06;58.42
15678;BME280;7939;50.814;6.368;2024-03-07T08:43:44;100542.66;;;10.02;58.58
15678;BME280;7939;50.814;6.368;2024-03-07T08:46:11;100542.75;;;10.08;58.13
15678;BME280;7939;50.814;6.368;2024-03-07T08:48:38;100544.38;;;10.02;58.63
15678;BME280;7939;50.814;6.368;2024-03-07T08:51:06;100536.88;;;10.12;59.04
15678;BME280;7939;50.814;6.368;2024-03-07T08:53:33;100541.03;;;10.06;58.84
15678;BME280;7939;50.814;6.368;2024-03-07T08:56:01;100530.03;;;10.11;59.40
15678;BME280;7939;50.814;6.368;2024-03-07T08:58:28;100542.78;;;10.10;59.22
15678;BME280;7939;50.814;6.368;2024-03-07T09:00:55;100535.75;;;9.95;59.71
15678;BME280;7939;50.814;6.368;2024-03-07T09:03:21;100534.09;;;9.97;59.57
15678;BME280;7939;50.814;6.368;2024-03-07T09:05:49;100534.72;;;9.82;59.70
15678;BME280;7939;50.814;6.368;2024-03-07T09:08:18;100535.84;;;9.99;59.58
15678;BME280;7939;50.814;6.368;2024-03-07T09:10:45;100535.78;;;9.96;59.54
15678;BME280;7939;50.814;6.368;2024-03-07T09:13:12;100530.75;;;10.01;59.61
15678;BME280;7939;50.814;6.368;2024-03-07T09:15:38;100529.06;;;10.03;60.02
15678;BME280;7939;50.814;6.368;2024-03-07T09:18:05;100527.50;;;10.13;59.64
15678;BME280;7939;50.814;6.368;2024-03-07T09:20:33;100522.44;;;10.17;60.38
15678;BME280;7939;50.814;6.368;2024-03-07T09:23:00;100522.59;;;10.25;59.51
15678;BME280;7939;50.814;6.368;2024-03-07T09:25:28;100520.06;;;10.28;59.26
15678;BME280;7939;50.814;6.368;2024-03-07T09:27:58;100526.06;;;10.30;59.22
15678;BME280;7939;50.814;6.368;2024-03-07T09:30:25;100510.78;;;10.33;59.03
15678;BME280;7939;50.814;6.368;2024-03-07T09:32:53;100515.03;;;10.31;59.36
15678;BME280;7939;50.814;6.368;2024-03-07T09:35:21;100512.50;;;10.36;59.09
15678;BME280;7939;50.814;6.368;2024-03-07T09:37:48;100509.94;;;10.36;59.18
15678;BME280;7939;50.814;6.368;2024-03-07T09:40:15;100510.84;;;10.39;59.22
15678;BME280;7939;50.814;6.368;2024-03-07T09:42:44;100513.25;;;10.25;58.84
15678;BME280;7939;50.814;6.368;2024-03-07T09:45:14;100510.03;;;10.42;59.52
15678;BME280;7939;50.814;6.368;2024-03-07T09:47:45;100510.94;;;10.44;58.83
15678;BME280;7939;50.814;6.368;2024-03-07T09:50:14;100506.75;;;10.52;59.01
15678;BME280;7939;50.814;6.368;2024-03-07T09:52:45;100504.25;;;10.57;58.62
15678;BME280;7939;50.814;6.368;2024-03-07T09:55:12;100500.78;;;10.50;58.10
15678;BME280;7939;50.814;6.368;2024-03-07T09:57:39;100514.44;;;10.55;58.60
15678;BME280;7939;50.814;6.368;2024-03-07T10:00:10;100509.25;;;10.47;58.24
15678;BME280;7939;50.814;6.368;2024-03-07T10:02:49;100505.13;;;10.59;58.21
15678;BME280;7939;50.814;6.368;2024-03-07T10:05:17;100501.78;;;10.63;58.50
15678;BME280;7939;50.814;6.368;2024-03-07T10:07:45;100505.25;;;10.69;57.88
15678;BME280;7939;50.814;6.368;2024-03-07T10:10:12;100500.16;;;10.74;57.92
15678;BME280;7939;50.814;6.368;2024-03-07T10:12:38;100501.13;;;10.84;58.91
15678;BME280;7939;50.814;6.368;2024-03-07T10:15:06;100501.22;;;10.90;57.96
15678;BME280;7939;50.814;6.368;2024-03-07T10:17:37;100493.53;;;10.90;58.01
15678;BME280;7939;50.814;6.368;2024-03-07T10:20:05;100502.97;;;10.94;58.34
15678;BME280;7939;50.814;6.368;2024-03-07T10:22:35;100502.97;;;10.94;57.55
15678;BME280;7939;50.814;6.368;2024-03-07T10:25:03;100493.59;;;10.94;57.76
15678;BME280;7939;50.814;6.368;2024-03-07T10:27:30;100502.06;;;10.90;57.22
15678;BME280;7939;50.814;6.368;2024-03-07T10:29:57;100492.69;;;10.92;56.85
15678;BME280;7939;50.814;6.368;2024-03-07T10:32:24;100493.53;;;10.90;56.71
15678;BME280;7939;50.814;6.368;2024-03-07T10:34:53;100486.72;;;10.90;57.07
15678;BME280;7939;50.814;6.368;2024-03-07T10:37:20;100481.66;;;10.95;56.62
15678;BME280;7939;50.814;6.368;2024-03-07T10:39:47;100490.19;;;10.94;57.08
15678;BME280;7939;50.814;6.368;2024-03-07T10:42:15;100485.03;;;10.91;56.57
15678;BME280;7939;50.814;6.368;2024-03-07T10:44:44;100485.94;;;10.97;56.21
15678;BME280;7939;50.814;6.368;2024-03-07T10:47:15;100487.56;;;10.89;55.38
15678;BME280;7939;50.814;6.368;2024-03-07T10:49:49;100485.81;;;10.84;55.32
15678;BME280;7939;50.814;6.368;2024-03-07T10:52:28;100486.53;;;10.73;54.79
15678;BME280;7939;50.814;6.368;2024-03-07T10:55:07;100477.16;;;10.74;54.61
15678;BME280;7939;50.814;6.368;2024-03-07T10:57:42;100478.06;;;10.79;54.59
15678;BME280;7939;50.814;6.368;2024-03-07T11:00:11;100477.34;;;10.89;55.80
15678;BME280;7939;50.814;6.368;2024-03-07T11:02:56;100471.38;;;10.89;54.97
15678;BME280;7939;50.814;6.368;2024-03-07T11:05:25;100467.91;;;10.87;54.36
15678;BME280;7939;50.814;6.368;2024-03-07T11:07:57;100469.53;;;10.77;54.19
15678;BME280;7939;50.814;6.368;2024-03-07T11:10:24;100460.97;;;10.73;54.19
15678;BME280;7939;50.814;6.368;2024-03-07T11:12:52;100460.19;;;10.79;54.08
15678;BME280;7939;50.814;6.368;2024-03-07T11:15:21;100455.19;;;10.88;55.16
15678;BME280;7939;50.814;6.368;2024-03-07T11:17:52;100449.16;;;10.83;52.94
15678;BME280;7939;50.814;6.368;2024-03-07T11:20:20;100451.69;;;10.82;53.17
15678;BME280;7939;50.814;6.368;2024-03-07T11:22:48;100443.94;;;10.74;52.47
15678;BME280;7939;50.814;6.368;2024-03-07T11:25:19;100449.88;;;10.73;52.81
15678;BME280;7939;50.814;6.368;2024-03-07T11:27:54;100451.66;;;10.77;52.74
15678;BME280;7939;50.814;6.368;2024-03-07T11:30:22;100443.16;;;10.81;53.17
15678;BME280;7939;50.814;6.368;2024-03-07T11:32:50;100445.69;;;10.76;52.95
15678;BME280;7939;50.814;6.368;2024-03-07T11:35:19;100437.22;;;10.85;53.84
15678;BME280;7939;50.814;6.368;2024-03-07T11:37:56;100440.59;;;10.79;53.22
15678;BME280;7939;50.814;6.368;2024-03-07T11:40:47;100433.06;;;10.95;54.27
15678;BME280;7939;50.814;6.368;2024-03-07T11:43:16;100429.66;;;10.97;54.15
15678;BME280;7939;50.814;6.368;2024-03-07T11:45:43;100420.34;;;11.04;54.59
15678;BME280;7939;50.814;6.368;2024-03-07T11:48:21;100418.66;;;11.03;53.58
15678;BME280;7939;50.814;6.368;2024-03-07T11:50:48;100403.31;;;11.03;53.30
15678;BME280;7939;50.814;6.368;2024-03-07T11:53:14;100408.38;;;11.00;52.43
15678;BME280;7939;50.814;6.368;2024-03-07T11:55:43;100405.06;;;11.12;53.67
15678;BME280;7939;50.814;6.368;2024-03-07T11:58:14;100403.31;;;11.06;52.17
15678;BME280;7939;50.814;6.368;2024-03-07T12:00:42;100402.50;;;11.07;52.12
15678;BME280;7939;50.814;6.368;2024-03-07T12:03:11;100395.78;;;11.23;54.04
15678;BME280;7939;50.814;6.368;2024-03-07T12:05:41;100391.63;;;11.40;52.40
15678;BME280;7939;50.814;6.368;2024-03-07T12:08:10;100392.63;;;11.65;52.87
15678;BME280;7939;50.814;6.368;2024-03-07T12:10:38;100387.91;;;13.09;57.90
15678;BME280;7939;50.814;6.368;2024-03-07T12:13:09;100379.09;;;14.08;56.61
15678;BME280;7939;50.814;6.368;2024-03-07T12:15:38;100379.19;;;13.88;50.50
15678;BME280;7939;50.814;6.368;2024-03-07T12:18:06;100375.94;;;13.40;50.88
15678;BME280;7939;50.814;6.368;2024-03-07T12:20:38;100370.78;;;13.12;49.65
15678;BME280;7939;50.814;6.368;2024-03-07T12:23:07;100369.09;;;12.98;49.33
15678;BME280;7939;50.814;6.368;2024-03-07T12:25:34;100362.25;;;12.98;49.89
15678;BME280;7939;50.814;6.368;2024-03-07T12:28:06;100348.56;;;12.85;50.21
15678;BME280;7939;50.814;6.368;2024-03-07T12:30:48;100346.84;;;12.96;50.60
15678;BME280;7939;50.814;6.368;2024-03-07T12:33:16;100347.72;;;12.97;50.74
15678;BME280;7939;50.814;6.368;2024-03-07T12:35:44;100351.13;;;12.96;50.99
15678;BME280;7939;50.814;6.368;2024-03-07T12:38:11;100346.00;;;12.93;49.66
15678;BME280;7939;50.814;6.368;2024-03-07T12:40:40;100345.97;;;12.94;50.85
15678;BME280;7939;50.814;6.368;2024-03-07T12:43:14;100341.72;;;12.98;51.36
15678;BME280;7939;50.814;6.368;2024-03-07T12:45:48;100333.16;;;12.94;49.91
15678;BME280;7939;50.814;6.368;2024-03-07T12:48:15;100334.88;;;12.99;51.01
15678;BME280;7939;50.814;6.368;2024-03-07T12:50:45;100336.59;;;13.03;51.54
15678;BME280;7939;50.814;6.368;2024-03-07T12:53:12;100323.75;;;13.03;50.96
15678;BME280;7939;50.814;6.368;2024-03-07T12:55:39;100328.88;;;13.09;51.62
15678;BME280;7939;50.814;6.368;2024-03-07T12:58:08;100322.91;;;13.08;51.52
15678;BME280;7939;50.814;6.368;2024-03-07T13:00:37;100322.06;;;13.08;51.46
15678;BME280;7939;50.814;6.368;2024-03-07T13:03:05;100320.34;;;13.14;51.82
15678;BME280;7939;50.814;6.368;2024-03-07T13:05:32;100316.88;;;13.17;51.33
15678;BME280;7939;50.814;6.368;2024-03-07T13:07:59;100311.78;;;13.21;51.67